createdAt,value
2022-11-10T00:00:11.399Z,0.00
2022-11-10T00:01:11.315Z,0.00
2022-11-10T00:02:11.234Z,0.00
2022-11-10T00:03:11.156Z,0.00
2022-11-10T00:04:11.155Z,0.00
2022-11-10T00:05:11.001Z,0.00
2022-11-10T00:06:10.918Z,0.00
2022-11-10T00:07:10.873Z,0.00
2022-11-10T00:08:10.765Z,0.00
2022-11-10T00:09:10.678Z,0.00
2022-11-10T00:10:10.601Z,0.00
2022-11-10T00:11:10.523Z,0.00
2022-11-10T00:12:10.441Z,0.00
2022-11-10T00:13:10.360Z,0.00
2022-11-10T00:14:10.284Z,0.00
2022-11-10T00:15:10.205Z,0.00
2022-11-10T00:16:10.124Z,0.00
2022-11-10T00:17:10.045Z,0.00
2022-11-10T00:18:09.959Z,0.00
2022-11-10T00:19:09.889Z,0.00
2022-11-10T00:20:09.824Z,0.00
2022-11-10T00:21:09.730Z,0.00
2022-11-10T00:22:09.640Z,0.00
2022-11-10T00:23:09.563Z,0.00
2022-11-10T00:24:09.483Z,0.00
2022-11-10T00:25:09.408Z,0.00
2022-11-10T00:26:09.322Z,0.00
2022-11-10T00:27:09.244Z,0.00
2022-11-10T00:28:09.163Z,0.00
2022-11-10T00:29:09.087Z,0.00
2022-11-10T00:30:09.007Z,0.00
2022-11-10T00:31:08.928Z,0.00
2022-11-10T00:32:08.842Z,0.00
2022-11-10T00:33:08.764Z,0.00
2022-11-10T00:34:08.696Z,0.00
2022-11-10T00:35:08.604Z,0.00
2022-11-10T00:36:08.548Z,0.00
2022-11-10T00:37:08.449Z,0.00
2022-11-10T00:38:08.363Z,0.00
2022-11-10T00:39:08.290Z,0.00
2022-11-10T00:40:08.211Z,0.00
2022-11-10T00:41:08.128Z,0.00
2022-11-10T00:42:08.046Z,0.00
2022-11-10T00:43:07.967Z,0.00
2022-11-10T00:44:07.885Z,0.00
2022-11-10T00:45:07.816Z,0.00
2022-11-10T00:46:07.726Z,0.00
2022-11-10T00:47:07.648Z,0.00
2022-11-10T00:48:07.566Z,0.00
2022-11-10T00:49:07.489Z,0.00
2022-11-10T00:50:07.410Z,0.00
2022-11-10T00:51:07.332Z,0.00
2022-11-10T00:52:07.249Z,0.00
2022-11-10T00:53:07.174Z,0.00
2022-11-10T00:54:07.089Z,0.00
2022-11-10T00:55:07.008Z,0.00
2022-11-10T00:56:06.932Z,0.00
2022-11-10T00:57:06.851Z,0.00
2022-11-10T00:58:06.769Z,0.00
2022-11-10T00:59:06.691Z,0.00
2022-11-10T01:00:06.608Z,0.00
2022-11-10T01:01:06.587Z,0.00
2022-11-10T01:02:06.449Z,0.00
2022-11-10T01:03:06.372Z,0.00
2022-11-10T01:04:06.287Z,0.00
2022-11-10T01:05:06.208Z,0.00
2022-11-10T01:06:06.129Z,0.00
2022-11-10T01:07:06.108Z,0.00
2022-11-10T01:08:05.970Z,0.00
2022-11-10T01:09:05.893Z,0.00
2022-11-10T01:10:05.811Z,0.00
2022-11-10T01:11:05.733Z,0.00
2022-11-10T01:12:05.647Z,0.00
2022-11-10T01:13:05.576Z,0.00
2022-11-10T01:14:05.488Z,0.00
2022-11-10T01:15:05.412Z,0.00
2022-11-10T01:16:05.332Z,0.00
2022-11-10T01:17:05.255Z,0.00
2022-11-10T01:18:05.170Z,0.00
2022-11-10T01:19:05.094Z,0.00
2022-11-10T01:20:05.011Z,0.00
2022-11-10T01:21:04.949Z,0.00
2022-11-10T01:22:04.857Z,0.00
2022-11-10T01:23:04.769Z,0.00
2022-11-10T01:24:04.692Z,0.00
2022-11-10T01:25:04.612Z,0.00
2022-11-10T01:26:04.540Z,0.00
2022-11-10T01:27:04.452Z,0.00
2022-11-10T01:28:04.372Z,0.00
2022-11-10T01:29:04.294Z,0.00
2022-11-10T01:30:04.215Z,0.00
2022-11-10T01:31:04.131Z,0.00
2022-11-10T01:32:04.056Z,0.00
2022-11-10T01:33:03.976Z,0.00
2022-11-10T01:34:03.894Z,0.00
2022-11-10T01:35:03.810Z,0.00
2022-11-10T01:36:03.732Z,0.00
2022-11-10T01:37:03.653Z,0.00
2022-11-10T01:38:03.570Z,0.00
2022-11-10T01:39:03.492Z,0.00
2022-11-10T01:40:03.511Z,0.00
2022-11-10T01:41:03.336Z,0.00
2022-11-10T01:42:03.249Z,0.00
2022-11-10T01:43:03.173Z,0.00
2022-11-10T01:44:03.094Z,0.00
2022-11-10T01:45:03.007Z,0.00
2022-11-10T01:46:02.935Z,0.00
2022-11-10T01:47:02.848Z,0.00
2022-11-10T01:48:02.774Z,0.00
2022-11-10T01:49:02.697Z,0.00
2022-11-10T01:50:02.613Z,0.00
2022-11-10T01:51:02.532Z,0.00
2022-11-10T01:52:02.450Z,0.00
2022-11-10T01:53:02.369Z,0.00
2022-11-10T01:54:02.292Z,0.00
2022-11-10T01:55:02.212Z,0.00
2022-11-10T01:56:02.138Z,0.00
2022-11-10T01:57:02.053Z,0.00
2022-11-10T01:58:01.971Z,0.00
2022-11-10T01:59:01.888Z,0.00
2022-11-10T02:00:01.811Z,0.00
2022-11-10T02:01:01.782Z,0.00
2022-11-10T02:02:01.650Z,0.00
2022-11-10T02:03:01.570Z,0.00
2022-11-10T02:04:01.491Z,0.00
2022-11-10T02:05:01.409Z,0.00
2022-11-10T02:06:01.332Z,0.00
2022-11-10T02:07:01.276Z,0.00
2022-11-10T02:08:01.173Z,0.00
2022-11-10T02:09:01.089Z,0.00
2022-11-10T02:10:01.017Z,0.00
2022-11-10T02:11:00.929Z,0.00
2022-11-10T02:12:00.850Z,0.00
2022-11-10T02:13:00.767Z,0.00
2022-11-10T02:14:00.690Z,0.00
2022-11-10T02:15:00.606Z,0.00
2022-11-10T02:16:00.527Z,0.00
2022-11-10T02:17:00.443Z,0.00
2022-11-10T02:18:00.366Z,0.00
2022-11-10T02:19:00.297Z,0.00
2022-11-10T02:20:00.219Z,0.00
2022-11-10T02:21:00.126Z,0.00
2022-11-10T02:22:00.045Z,0.00
2022-11-10T02:22:59.968Z,0.00
2022-11-10T02:23:59.890Z,0.00
2022-11-10T02:24:59.807Z,0.00
2022-11-10T02:25:59.727Z,0.00
2022-11-10T02:26:59.641Z,0.00
2022-11-10T02:27:59.568Z,0.00
2022-11-10T02:28:59.482Z,0.00
2022-11-10T02:29:59.420Z,0.00
2022-11-10T02:30:59.326Z,0.00
2022-11-10T02:31:59.242Z,0.00
2022-11-10T02:32:59.160Z,0.00
2022-11-10T02:33:59.082Z,0.00
2022-11-10T02:34:59.005Z,0.00
2022-11-10T02:35:58.925Z,0.00
2022-11-10T02:36:58.844Z,0.00
2022-11-10T02:37:58.764Z,0.00
2022-11-10T02:38:58.678Z,0.00
2022-11-10T02:39:58.608Z,0.00
2022-11-10T02:40:58.523Z,0.00
2022-11-10T02:41:58.444Z,0.00
2022-11-10T02:42:58.366Z,0.00
2022-11-10T02:43:58.283Z,0.00
2022-11-10T02:44:58.199Z,0.00
2022-11-10T02:45:58.124Z,0.00
2022-11-10T02:46:58.040Z,0.00
2022-11-10T02:47:57.961Z,0.00
2022-11-10T02:48:57.883Z,0.00
2022-11-10T02:49:57.799Z,0.00
2022-11-10T02:50:57.715Z,0.00
2022-11-10T02:51:57.637Z,0.00
2022-11-10T02:52:57.560Z,0.00
2022-11-10T02:53:57.479Z,0.00
2022-11-10T02:54:57.397Z,0.00
2022-11-10T02:55:57.324Z,0.00
2022-11-10T02:56:57.234Z,0.00
2022-11-10T02:57:57.156Z,0.00
2022-11-10T02:58:57.078Z,0.00
2022-11-10T02:59:57.001Z,0.00
2022-11-10T03:00:56.995Z,0.00
2022-11-10T03:01:56.837Z,0.00
2022-11-10T03:02:56.798Z,0.00
2022-11-10T03:03:56.673Z,0.00
2022-11-10T03:04:56.593Z,0.00
2022-11-10T03:05:56.517Z,0.00
2022-11-10T03:06:56.505Z,0.00
2022-11-10T03:07:56.355Z,0.00
2022-11-10T03:08:56.275Z,0.00
2022-11-10T03:09:56.191Z,0.00
2022-11-10T03:10:56.117Z,0.00
2022-11-10T03:11:56.036Z,0.00
2022-11-10T03:12:55.951Z,0.00
2022-11-10T03:14:02.039Z,0.00
2022-11-10T03:14:55.790Z,0.00
2022-11-10T03:15:55.714Z,0.00
2022-11-10T03:16:55.630Z,0.00
2022-11-10T03:17:55.553Z,0.00
2022-11-10T03:18:55.474Z,0.00
2022-11-10T03:19:55.391Z,0.00
2022-11-10T03:20:55.310Z,0.00
2022-11-10T03:21:55.229Z,0.00
2022-11-10T03:22:55.150Z,0.00
2022-11-10T03:23:55.065Z,0.00
2022-11-10T03:24:54.986Z,0.00
2022-11-10T03:25:54.911Z,0.00
2022-11-10T03:26:54.827Z,0.00
2022-11-10T03:27:54.756Z,0.00
2022-11-10T03:28:54.672Z,0.00
2022-11-10T03:29:54.587Z,0.00
2022-11-10T03:30:54.506Z,0.00
2022-11-10T03:31:54.424Z,0.00
2022-11-10T03:32:54.343Z,0.00
2022-11-10T03:33:54.263Z,0.00
2022-11-10T03:34:54.180Z,0.00
2022-11-10T03:35:54.104Z,0.00
2022-11-10T03:36:54.019Z,0.00
2022-11-10T03:37:53.957Z,0.00
2022-11-10T03:38:53.855Z,0.00
2022-11-10T03:39:53.780Z,0.00
2022-11-10T03:41:22.442Z,0.00
2022-11-10T03:41:53.629Z,0.00
2022-11-10T03:42:53.542Z,0.00
2022-11-10T03:43:53.455Z,0.00
2022-11-10T03:44:53.378Z,0.00
2022-11-10T03:45:53.298Z,0.00
2022-11-10T03:46:53.213Z,0.00
2022-11-10T03:47:53.138Z,0.00
2022-11-10T03:48:53.809Z,0.00
2022-11-10T03:49:52.971Z,0.00
2022-11-10T03:50:52.892Z,0.00
2022-11-10T03:51:52.810Z,0.00
2022-11-10T03:52:52.728Z,0.00
2022-11-10T03:53:52.648Z,0.00
2022-11-10T03:54:52.568Z,0.00
2022-11-10T03:55:52.493Z,0.00
2022-11-10T03:56:52.415Z,0.00
2022-11-10T03:57:52.325Z,0.00
2022-11-10T03:58:52.245Z,0.00
2022-11-10T03:59:52.164Z,0.00
2022-11-10T04:00:52.082Z,0.00
2022-11-10T04:01:52.060Z,0.00
2022-11-10T04:02:51.921Z,0.00
2022-11-10T04:03:51.919Z,0.00
2022-11-10T04:04:51.760Z,0.00
2022-11-10T04:05:51.679Z,0.00
2022-11-10T04:06:51.642Z,0.00
2022-11-10T04:07:51.518Z,0.00
2022-11-10T04:08:51.436Z,0.00
2022-11-10T04:09:51.360Z,0.00
2022-11-10T04:10:51.275Z,0.00
2022-11-10T04:11:51.190Z,0.00
2022-11-10T04:12:51.111Z,0.00
2022-11-10T04:13:51.034Z,0.00
2022-11-10T04:14:50.951Z,0.00
2022-11-10T04:15:50.866Z,0.00
2022-11-10T04:16:50.785Z,0.00
2022-11-10T04:17:50.711Z,0.00
2022-11-10T04:18:50.626Z,0.00
2022-11-10T04:19:50.547Z,0.00
2022-11-10T04:20:50.460Z,0.00
2022-11-10T04:21:50.383Z,0.00
2022-11-10T04:22:50.300Z,0.00
2022-11-10T04:23:50.223Z,0.00
2022-11-10T04:24:50.136Z,0.00
2022-11-10T04:25:50.061Z,0.00
2022-11-10T04:26:49.975Z,0.00
2022-11-10T04:27:49.894Z,0.00
2022-11-10T04:28:49.812Z,0.00
2022-11-10T04:29:49.729Z,0.00
2022-11-10T04:30:49.647Z,0.00
2022-11-10T04:31:49.571Z,0.00
2022-11-10T04:32:49.486Z,0.00
2022-11-10T04:33:49.405Z,0.00
2022-11-10T04:34:49.327Z,0.00
2022-11-10T04:35:49.249Z,0.00
2022-11-10T04:36:49.162Z,0.00
2022-11-10T04:37:49.080Z,0.00
2022-11-10T04:38:48.995Z,0.00
2022-11-10T04:39:48.923Z,0.00
2022-11-10T04:40:48.837Z,0.00
2022-11-10T04:41:48.761Z,0.00
2022-11-10T04:42:48.674Z,0.00
2022-11-10T04:43:48.593Z,0.00
2022-11-10T04:44:48.511Z,0.00
2022-11-10T04:45:48.430Z,0.00
2022-11-10T04:46:48.346Z,0.00
2022-11-10T04:47:48.268Z,0.00
2022-11-10T04:48:48.194Z,0.00
2022-11-10T04:49:48.102Z,0.00
2022-11-10T04:50:48.022Z,0.00
2022-11-10T04:51:48.081Z,0.00
2022-11-10T04:52:47.860Z,0.00
2022-11-10T04:53:47.777Z,0.00
2022-11-10T04:54:47.691Z,0.00
2022-11-10T04:55:47.615Z,0.00
2022-11-10T04:56:47.533Z,0.00
2022-11-10T04:57:47.451Z,0.00
2022-11-10T04:58:47.370Z,0.00
2022-11-10T04:59:47.292Z,0.00
2022-11-10T05:00:47.254Z,0.00
2022-11-10T05:01:47.125Z,0.00
2022-11-10T05:02:47.041Z,0.00
2022-11-10T05:03:46.965Z,0.00
2022-11-10T05:04:46.880Z,0.00
2022-11-10T05:05:46.803Z,0.00
2022-11-10T05:06:46.759Z,0.00
2022-11-10T05:07:46.632Z,0.00
2022-11-10T05:08:46.551Z,0.00
2022-11-10T05:09:46.475Z,0.00
2022-11-10T05:10:46.388Z,0.00
2022-11-10T05:11:46.305Z,0.00
2022-11-10T05:12:46.222Z,0.00
2022-11-10T05:13:46.146Z,0.00
2022-11-10T05:14:46.056Z,0.00
2022-11-10T05:15:45.984Z,0.00
2022-11-10T05:16:45.898Z,0.00
2022-11-10T05:17:45.817Z,0.00
2022-11-10T05:18:45.732Z,0.00
2022-11-10T05:19:45.659Z,0.00
2022-11-10T05:20:45.566Z,0.00
2022-11-10T05:21:45.488Z,0.00
2022-11-10T05:22:49.065Z,0.00
2022-11-10T05:23:45.326Z,0.00
2022-11-10T05:24:45.243Z,0.00
2022-11-10T05:25:45.159Z,0.00
2022-11-10T05:26:45.075Z,0.00
2022-11-10T05:27:44.998Z,0.00
2022-11-10T05:28:44.920Z,0.00
2022-11-10T05:29:44.829Z,0.00
2022-11-10T05:30:44.747Z,0.00
2022-11-10T05:31:49.120Z,0.00
2022-11-10T05:32:44.585Z,0.00
2022-11-10T05:33:44.505Z,0.00
2022-11-10T05:34:44.422Z,0.00
2022-11-10T05:35:44.339Z,0.00
2022-11-10T05:36:44.252Z,0.00
2022-11-10T05:37:44.175Z,0.00
2022-11-10T05:38:44.119Z,0.00
2022-11-10T05:39:44.013Z,0.00
2022-11-10T05:40:43.923Z,0.00
2022-11-10T05:41:43.846Z,0.00
2022-11-10T05:42:43.768Z,0.00
2022-11-10T05:43:43.676Z,0.00
2022-11-10T05:44:43.594Z,0.00
2022-11-10T05:45:43.515Z,0.00
2022-11-10T05:46:43.430Z,0.00
2022-11-10T05:47:43.349Z,0.00
2022-11-10T05:48:43.267Z,0.00
2022-11-10T05:49:43.185Z,0.00
2022-11-10T05:50:43.099Z,0.00
2022-11-10T05:51:43.019Z,0.00
2022-11-10T05:52:46.305Z,0.00
2022-11-10T05:53:42.859Z,0.00
2022-11-10T05:54:42.774Z,0.00
2022-11-10T05:55:42.693Z,0.00
2022-11-10T05:56:42.608Z,0.00
2022-11-10T05:57:42.532Z,4.00
2022-11-10T05:58:42.447Z,0.00
2022-11-10T05:59:42.362Z,0.00
2022-11-10T06:00:42.279Z,4.00
2022-11-10T06:01:42.200Z,0.00
2022-11-10T06:02:42.112Z,4.00
2022-11-10T06:03:42.071Z,0.00
2022-11-10T06:04:41.953Z,4.00
2022-11-10T06:05:41.868Z,4.00
2022-11-10T06:06:41.865Z,4.00
2022-11-10T06:07:41.706Z,4.00
2022-11-10T06:08:41.620Z,4.00
2022-11-10T06:09:41.535Z,8.00
2022-11-10T06:10:41.458Z,8.00
2022-11-10T06:11:41.372Z,8.00
2022-11-10T06:12:41.294Z,8.00
2022-11-10T06:13:41.205Z,12.00
2022-11-10T06:14:41.125Z,8.00
2022-11-10T06:15:42.956Z,12.00
2022-11-10T06:16:40.961Z,12.00
2022-11-10T06:17:40.883Z,16.00
2022-11-10T06:18:40.798Z,16.00
2022-11-10T06:19:40.713Z,16.00
2022-11-10T06:20:40.631Z,16.00
2022-11-10T06:21:40.549Z,20.00
2022-11-10T06:22:40.468Z,20.00
2022-11-10T06:23:40.380Z,20.00
2022-11-10T06:24:40.302Z,24.00
2022-11-10T06:25:40.218Z,24.00
2022-11-10T06:26:40.136Z,24.00
2022-11-10T06:27:40.058Z,28.00
2022-11-10T06:28:39.971Z,28.00
2022-11-10T06:29:39.889Z,32.00
2022-11-10T06:30:39.808Z,32.00
2022-11-10T06:31:39.720Z,40.00
2022-11-10T06:32:39.642Z,36.00
2022-11-10T06:33:39.556Z,40.00
2022-11-10T06:34:39.475Z,40.00
2022-11-10T06:35:39.395Z,44.00
2022-11-10T06:36:39.315Z,48.00
2022-11-10T06:37:39.228Z,52.00
2022-11-10T06:38:39.144Z,48.00
2022-11-10T06:39:39.064Z,56.00
2022-11-10T06:40:38.981Z,64.00
2022-11-10T06:41:38.904Z,60.00
2022-11-10T06:42:38.815Z,64.00
2022-11-10T06:43:38.741Z,72.00
2022-11-10T06:44:38.654Z,76.00
2022-11-10T06:45:38.566Z,80.00
2022-11-10T06:46:42.324Z,84.00
2022-11-10T06:47:38.402Z,84.00
2022-11-10T06:48:38.323Z,92.00
2022-11-10T06:49:38.238Z,96.00
2022-11-10T06:50:38.160Z,100.00
2022-11-10T06:51:38.071Z,104.00
2022-11-10T06:52:37.993Z,108.00
2022-11-10T06:53:37.909Z,116.00
2022-11-10T06:54:37.830Z,120.00
2022-11-10T06:55:37.739Z,136.00
2022-11-10T06:56:37.658Z,140.00
2022-11-10T06:57:37.580Z,148.00
2022-11-10T06:58:37.498Z,156.00
2022-11-10T06:59:37.421Z,172.00
2022-11-10T07:00:37.334Z,188.00
2022-11-10T07:01:37.269Z,200.00
2022-11-10T07:02:37.166Z,208.00
2022-11-10T07:03:44.462Z,216.00
2022-11-10T07:04:37.005Z,224.00
2022-11-10T07:05:36.915Z,232.00
2022-11-10T07:06:36.898Z,240.00
2022-11-10T07:07:36.759Z,252.00
2022-11-10T07:08:36.674Z,260.00
2022-11-10T07:09:36.591Z,272.00
2022-11-10T07:10:36.508Z,192.00
2022-11-10T07:11:36.424Z,192.00
2022-11-10T07:12:36.354Z,188.00
2022-11-10T07:13:36.262Z,196.00
2022-11-10T07:14:36.181Z,184.00
2022-11-10T07:15:36.102Z,216.00
2022-11-10T07:16:36.015Z,212.00
2022-11-10T07:17:35.932Z,216.00
2022-11-10T07:18:35.855Z,184.00
2022-11-10T07:19:35.764Z,180.00
2022-11-10T07:20:35.693Z,192.00
2022-11-10T07:21:35.600Z,240.00
2022-11-10T07:22:35.520Z,268.00
2022-11-10T07:23:35.439Z,288.00
2022-11-10T07:24:35.360Z,300.00
2022-11-10T07:25:35.278Z,256.00
2022-11-10T07:26:35.193Z,272.00
2022-11-10T07:27:35.109Z,376.00
2022-11-10T07:28:35.031Z,308.00
2022-11-10T07:29:34.950Z,276.00
2022-11-10T07:30:34.868Z,560.00
2022-11-10T07:31:34.783Z,336.00
2022-11-10T07:32:34.705Z,320.00
2022-11-10T07:33:34.621Z,728.00
2022-11-10T07:34:34.539Z,340.00
2022-11-10T07:35:34.457Z,456.00
2022-11-10T07:36:34.375Z,732.00
2022-11-10T07:37:34.299Z,356.00
2022-11-10T07:38:34.215Z,452.00
2022-11-10T07:39:34.134Z,384.00
2022-11-10T07:40:34.055Z,560.00
2022-11-10T07:41:33.971Z,428.00
2022-11-10T07:42:33.888Z,484.00
2022-11-10T07:43:33.801Z,340.00
2022-11-10T07:44:33.724Z,560.00
2022-11-10T07:45:33.643Z,516.00
2022-11-10T07:46:33.565Z,324.00
2022-11-10T07:47:33.478Z,412.00
2022-11-10T07:48:33.396Z,336.00
2022-11-10T07:49:33.317Z,304.00
2022-11-10T07:50:33.235Z,416.00
2022-11-10T07:51:33.165Z,608.00
2022-11-10T07:52:33.073Z,728.00
2022-11-10T07:53:32.990Z,596.00
2022-11-10T07:54:32.908Z,984.00
2022-11-10T07:55:32.829Z,636.00
2022-11-10T07:56:32.750Z,808.00
2022-11-10T07:57:32.665Z,736.00
2022-11-10T07:58:32.582Z,584.00
2022-11-10T07:59:32.507Z,580.00
2022-11-10T08:00:32.419Z,528.00
2022-11-10T08:01:32.387Z,552.00
2022-11-10T08:02:32.260Z,648.00
2022-11-10T08:03:32.175Z,560.00
2022-11-10T08:04:32.101Z,580.00
2022-11-10T08:05:32.016Z,1216.00
2022-11-10T08:06:35.962Z,608.00
2022-11-10T08:07:31.966Z,692.00
2022-11-10T08:08:31.770Z,876.00
2022-11-10T08:09:31.692Z,644.00
2022-11-10T08:10:31.624Z,860.00
2022-11-10T08:11:31.529Z,604.00
2022-11-10T08:12:33.775Z,696.00
2022-11-10T08:13:31.364Z,556.00
2022-11-10T08:14:31.287Z,608.00
2022-11-10T08:15:31.206Z,840.00
2022-11-10T08:16:31.124Z,1272.00
2022-11-10T08:17:31.041Z,608.00
2022-11-10T08:18:35.059Z,692.00
2022-11-10T08:19:30.891Z,540.00
2022-11-10T08:20:30.847Z,472.00
2022-11-10T08:21:30.719Z,512.00
2022-11-10T08:22:30.639Z,512.00
2022-11-10T08:23:30.555Z,568.00
2022-11-10T08:24:30.477Z,628.00
2022-11-10T08:25:34.766Z,624.00
2022-11-10T08:26:30.323Z,620.00
2022-11-10T08:27:30.231Z,572.00
2022-11-10T08:28:30.157Z,532.00
2022-11-10T08:29:30.073Z,628.00
2022-11-10T08:30:30.053Z,792.00
2022-11-10T08:31:29.913Z,856.00
2022-11-10T08:32:29.839Z,700.00
2022-11-10T08:33:29.752Z,704.00
2022-11-10T08:34:29.673Z,792.00
2022-11-10T08:35:29.591Z,732.00
2022-11-10T08:36:29.514Z,884.00
2022-11-10T08:37:29.425Z,1288.00
2022-11-10T08:38:29.351Z,1144.00
2022-11-10T08:39:38.760Z,568.00
2022-11-10T08:40:29.233Z,424.00
2022-11-10T08:41:29.107Z,396.00
2022-11-10T08:42:29.025Z,372.00
2022-11-10T08:43:28.944Z,356.00
2022-11-10T08:44:28.862Z,356.00
2022-11-10T08:45:28.788Z,376.00
2022-11-10T08:46:28.703Z,336.00
2022-11-10T08:47:28.621Z,328.00
2022-11-10T08:48:28.543Z,320.00
2022-11-10T08:49:28.461Z,312.00
2022-11-10T08:50:28.509Z,304.00
2022-11-10T08:51:28.304Z,300.00
2022-11-10T08:52:28.225Z,312.00
2022-11-10T08:53:28.143Z,324.00
2022-11-10T08:54:28.065Z,332.00
2022-11-10T08:55:27.981Z,344.00
2022-11-10T08:56:27.901Z,348.00
2022-11-10T08:57:27.818Z,356.00
2022-11-10T08:58:27.741Z,384.00
2022-11-10T08:59:27.657Z,404.00
2022-11-10T09:00:27.581Z,412.00
2022-11-10T09:01:27.499Z,472.00
2022-11-10T09:02:27.418Z,484.00
2022-11-10T09:03:27.584Z,540.00
2022-11-10T09:04:27.298Z,528.00
2022-11-10T09:05:27.176Z,508.00
2022-11-10T09:06:27.101Z,524.00
2022-11-10T09:07:27.017Z,604.00
2022-11-10T09:08:26.936Z,744.00
2022-11-10T09:09:26.859Z,784.00
2022-11-10T09:10:26.772Z,492.00
2022-11-10T09:11:26.693Z,464.00
2022-11-10T09:12:26.618Z,476.00
2022-11-10T09:13:30.165Z,556.00
2022-11-10T09:14:26.456Z,468.00
2022-11-10T09:15:26.371Z,472.00
2022-11-10T09:16:26.292Z,416.00
2022-11-10T09:17:26.211Z,388.00
2022-11-10T09:18:26.137Z,384.00
2022-11-10T09:19:26.076Z,496.00
2022-11-10T09:20:25.976Z,516.00
2022-11-10T09:21:25.893Z,468.00
2022-11-10T09:22:25.819Z,528.00
2022-11-10T09:23:25.954Z,672.00
2022-11-10T09:24:31.043Z,820.00
2022-11-10T09:25:25.567Z,1056.00
2022-11-10T09:26:25.488Z,1296.00
2022-11-10T09:27:25.411Z,1340.00
2022-11-10T09:28:25.329Z,1304.00
2022-11-10T09:29:25.250Z,1292.00
2022-11-10T09:30:25.171Z,1212.00
2022-11-10T09:31:25.089Z,836.00
2022-11-10T09:32:25.014Z,1280.00
2022-11-10T09:33:25.200Z,1472.00
2022-11-10T09:34:24.875Z,1516.00
2022-11-10T09:35:24.766Z,1428.00
2022-11-10T09:36:24.690Z,1396.00
2022-11-10T09:37:24.614Z,2640.00
2022-11-10T09:38:24.809Z,2936.00
2022-11-10T09:39:24.451Z,2576.00
2022-11-10T09:40:24.369Z,3904.00
2022-11-10T09:41:24.294Z,4788.00
2022-11-10T09:42:24.213Z,3904.00
2022-11-10T09:43:24.321Z,4648.00
2022-11-10T09:44:24.052Z,4572.00
2022-11-10T09:45:23.971Z,4532.00
2022-11-10T09:46:23.891Z,4784.00
2022-11-10T09:47:50.773Z,4768.00
2022-11-10T09:48:24.004Z,2632.00
2022-11-10T09:49:23.651Z,5172.00
2022-11-10T09:50:23.578Z,5104.00
2022-11-10T09:51:23.498Z,5416.00
2022-11-10T09:52:23.417Z,4196.00
2022-11-10T09:53:23.335Z,5636.00
2022-11-10T09:54:23.263Z,5764.00
2022-11-10T09:55:23.180Z,6072.00
2022-11-10T09:56:23.104Z,7192.00
2022-11-10T09:57:23.025Z,7992.00
2022-11-10T09:58:23.259Z,7612.00
2022-11-10T09:59:22.864Z,5564.00
2022-11-10T10:00:22.788Z,3412.00
2022-11-10T10:01:22.746Z,2800.00
2022-11-10T10:02:22.631Z,2596.00
2022-11-10T10:03:22.555Z,2504.00
2022-11-10T10:04:22.475Z,2460.00
2022-11-10T10:05:22.393Z,2412.00
2022-11-10T10:06:22.333Z,2372.00
2022-11-10T10:07:22.296Z,2488.00
2022-11-10T10:08:22.424Z,2520.00
2022-11-10T10:09:22.088Z,2508.00
2022-11-10T10:10:22.047Z,2472.00
2022-11-10T10:11:21.927Z,2452.00
2022-11-10T10:12:21.853Z,2516.00
2022-11-10T10:13:21.769Z,2548.00
2022-11-10T10:14:21.689Z,2536.00
2022-11-10T10:15:24.192Z,2472.00
2022-11-10T10:16:21.535Z,2496.00
2022-11-10T10:17:24.760Z,2408.00
2022-11-10T10:18:21.668Z,2404.00
2022-11-10T10:19:21.308Z,2424.00
2022-11-10T10:20:21.224Z,2444.00
2022-11-10T10:21:21.151Z,2356.00
2022-11-10T10:22:21.072Z,2368.00
2022-11-10T10:23:30.497Z,2376.00
2022-11-10T10:24:22.290Z,2360.00
2022-11-10T10:25:20.838Z,1732.00
2022-11-10T10:26:20.758Z,1388.00
2022-11-10T10:27:20.686Z,776.00
2022-11-10T10:28:21.012Z,932.00
2022-11-10T10:29:20.525Z,1940.00
2022-11-10T10:30:20.448Z,2120.00
2022-11-10T10:31:20.369Z,604.00
2022-11-10T10:32:20.290Z,576.00
2022-11-10T10:33:20.224Z,2240.00
2022-11-10T10:34:20.138Z,1964.00
2022-11-10T10:35:20.067Z,2168.00
2022-11-10T10:36:19.980Z,2320.00
2022-11-10T10:37:19.906Z,616.00
2022-11-10T10:38:20.218Z,1496.00
2022-11-10T10:39:19.746Z,732.00
2022-11-10T10:40:19.668Z,604.00
2022-11-10T10:41:23.569Z,528.00
2022-11-10T10:42:19.524Z,1212.00
2022-11-10T10:43:19.435Z,852.00
2022-11-10T10:44:19.356Z,2312.00
2022-11-10T10:45:19.331Z,608.00
2022-11-10T10:46:19.206Z,968.00
2022-11-10T10:47:19.123Z,2316.00
2022-11-10T10:48:19.264Z,688.00
2022-11-10T10:49:33.982Z,520.00
2022-11-10T10:50:18.887Z,2216.00
2022-11-10T10:51:18.815Z,720.00
2022-11-10T10:52:18.738Z,500.00
2022-11-10T10:53:18.666Z,904.00
2022-11-10T10:54:18.577Z,2268.00
2022-11-10T10:55:18.503Z,504.00
2022-11-10T10:56:18.426Z,556.00
2022-11-10T10:57:18.347Z,532.00
2022-11-10T10:58:18.285Z,548.00
2022-11-10T10:59:18.218Z,976.00
2022-11-10T11:00:18.122Z,2280.00
2022-11-10T11:01:18.149Z,808.00
2022-11-10T11:02:17.961Z,1028.00
2022-11-10T11:03:17.878Z,1588.00
2022-11-10T11:04:17.799Z,1192.00
2022-11-10T11:05:17.730Z,2180.00
2022-11-10T11:06:17.646Z,2256.00
2022-11-10T11:07:17.617Z,2276.00
2022-11-10T11:08:17.492Z,2160.00
2022-11-10T11:09:17.412Z,2216.00
2022-11-10T11:10:17.333Z,2200.00
2022-11-10T11:11:17.256Z,2216.00
2022-11-10T11:12:17.173Z,2192.00
2022-11-10T11:13:17.101Z,2212.00
2022-11-10T11:14:17.017Z,1824.00
2022-11-10T11:15:16.944Z,2172.00
2022-11-10T11:16:16.865Z,2132.00
2022-11-10T11:17:16.848Z,2108.00
2022-11-10T11:18:16.713Z,2068.00
2022-11-10T11:19:16.634Z,2068.00
2022-11-10T11:20:16.688Z,2076.00
2022-11-10T11:21:16.478Z,2084.00
2022-11-10T11:22:16.407Z,2072.00
2022-11-10T11:23:16.325Z,2080.00
2022-11-10T11:24:16.249Z,2080.00
2022-11-10T11:25:16.168Z,2080.00
2022-11-10T11:26:16.092Z,2084.00
2022-11-10T11:27:16.016Z,2076.00
2022-11-10T11:28:15.933Z,2076.00
2022-11-10T11:29:15.860Z,2084.00
2022-11-10T11:30:15.817Z,2128.00
2022-11-10T11:31:15.705Z,2128.00
2022-11-10T11:32:15.623Z,2172.00
2022-11-10T11:33:15.550Z,2172.00
2022-11-10T11:34:15.472Z,1632.00
2022-11-10T11:35:15.398Z,496.00
2022-11-10T11:36:15.315Z,448.00
2022-11-10T11:37:19.214Z,1300.00
2022-11-10T11:38:15.159Z,2028.00
2022-11-10T11:39:15.091Z,2052.00
2022-11-10T11:40:15.140Z,476.00
2022-11-10T11:41:14.935Z,516.00
2022-11-10T11:42:14.855Z,1816.00
2022-11-10T11:43:14.777Z,1808.00
2022-11-10T11:44:14.703Z,1968.00
2022-11-10T11:45:14.619Z,1696.00
2022-11-10T11:46:14.541Z,356.00
2022-11-10T11:47:14.471Z,284.00
2022-11-10T11:48:14.389Z,280.00
2022-11-10T11:49:14.309Z,284.00
2022-11-10T11:50:14.306Z,280.00
2022-11-10T11:51:14.160Z,296.00
2022-11-10T11:52:14.080Z,320.00
2022-11-10T11:53:14.005Z,568.00
2022-11-10T11:54:13.925Z,480.00
2022-11-10T11:55:13.849Z,624.00
2022-11-10T11:56:13.770Z,440.00
2022-11-10T11:57:13.691Z,608.00
2022-11-10T11:58:13.615Z,2020.00
2022-11-10T11:59:13.535Z,1116.00
2022-11-10T12:00:13.585Z,2028.00
2022-11-10T12:01:13.383Z,2052.00
2022-11-10T12:02:13.322Z,2092.00
2022-11-10T12:03:13.229Z,2088.00
2022-11-10T12:04:13.148Z,2096.00
2022-11-10T12:05:13.068Z,2112.00
2022-11-10T12:06:12.998Z,2076.00
2022-11-10T12:07:12.958Z,2104.00
2022-11-10T12:08:12.840Z,2072.00
2022-11-10T12:09:12.766Z,2040.00
2022-11-10T12:10:12.684Z,2068.00
2022-11-10T12:11:12.611Z,2056.00
2022-11-10T12:12:12.527Z,2068.00
2022-11-10T12:13:12.452Z,2100.00
2022-11-10T12:14:12.371Z,2112.00
2022-11-10T12:15:12.292Z,1048.00
2022-11-10T12:16:12.218Z,2192.00
2022-11-10T12:17:12.143Z,2144.00
2022-11-10T12:18:12.065Z,2064.00
2022-11-10T12:19:11.983Z,1912.00
2022-11-10T12:20:11.914Z,1500.00
2022-11-10T12:21:11.832Z,1988.00
2022-11-10T12:22:11.759Z,1964.00
2022-11-10T12:23:11.677Z,1900.00
2022-11-10T12:24:11.601Z,1884.00
2022-11-10T12:25:11.524Z,1932.00
2022-11-10T12:26:11.444Z,1952.00
2022-11-10T12:27:11.367Z,1968.00
2022-11-10T12:28:11.289Z,1984.00
2022-11-10T12:29:11.211Z,2004.00
2022-11-10T12:30:11.139Z,2012.00
2022-11-10T12:31:11.057Z,2020.00
2022-11-10T12:32:10.982Z,2032.00
2022-11-10T12:33:11.002Z,2032.00
2022-11-10T12:34:10.831Z,2000.00
2022-11-10T12:35:10.756Z,1964.00
2022-11-10T12:36:10.676Z,1956.00
2022-11-10T12:37:10.594Z,1896.00
2022-11-10T12:38:10.525Z,1932.00
2022-11-10T12:39:10.444Z,1912.00
2022-11-10T12:40:10.371Z,1132.00
2022-11-10T12:41:10.289Z,1896.00
2022-11-10T12:42:10.209Z,1932.00
2022-11-10T12:43:10.132Z,1312.00
2022-11-10T12:44:10.062Z,1940.00
2022-11-10T12:45:09.980Z,336.00
2022-11-10T12:46:09.906Z,1936.00